createdAt,value
2023-01-12T00:02:52.395Z,20.27
2023-01-12T00:06:00.911Z,21.47
2023-01-12T00:09:06.397Z,20.63
2023-01-12T00:12:12.068Z,18.70
2023-01-12T00:15:14.595Z,17.20
2023-01-12T00:18:17.013Z,16.23
2023-01-12T00:21:19.490Z,17.30
2023-01-12T00:24:24.094Z,17.73
2023-01-12T00:27:26.550Z,18.17
2023-01-12T00:30:30.175Z,20.80
2023-01-12T00:33:32.653Z,20.80
2023-01-12T00:36:35.268Z,18.38
2023-01-12T00:39:40.737Z,18.40
2023-01-12T00:43:03.860Z,18.53
2023-01-12T00:46:06.535Z,19.98
2023-01-12T00:49:09.242Z,20.23
2023-01-12T00:52:24.817Z,23.20
2023-01-12T00:55:32.138Z,20.43
2023-01-12T00:58:35.319Z,20.60
2023-01-12T01:01:37.905Z,18.63
2023-01-12T01:04:40.786Z,17.63
2023-01-12T01:07:44.036Z,18.33
2023-01-12T01:10:46.823Z,17.85
2023-01-12T01:13:49.836Z,18.13
2023-01-12T01:16:52.482Z,17.52
2023-01-12T01:19:55.141Z,18.77
2023-01-12T01:22:57.777Z,18.45
2023-01-12T01:26:20.301Z,19.13
2023-01-12T01:29:23.081Z,19.77
2023-01-12T01:32:25.595Z,18.83
2023-01-12T01:35:27.981Z,20.73
2023-01-12T01:38:30.634Z,19.13
2023-01-12T01:41:33.546Z,18.40
2023-01-12T01:44:44.881Z,19.40
2023-01-12T01:47:53.867Z,20.70
2023-01-12T01:51:01.649Z,20.63
2023-01-12T01:54:04.825Z,19.80
2023-01-12T01:57:10.049Z,19.40
2023-01-12T02:00:14.494Z,19.05
2023-01-12T02:03:17.877Z,20.53
2023-01-12T02:06:26.233Z,20.60
2023-01-12T02:09:30.784Z,21.13
2023-01-12T02:12:51.946Z,21.73
2023-01-12T02:16:25.723Z,22.27
2023-01-12T02:19:58.080Z,22.60
2023-01-12T02:23:14.930Z,22.87
2023-01-12T02:27:19.167Z,23.08
2023-01-12T02:31:06.190Z,24.00
2023-01-12T02:34:37.592Z,23.60
2023-01-12T02:38:10.091Z,24.90
2023-01-12T02:42:06.488Z,23.40
2023-01-12T02:45:23.773Z,22.80
2023-01-12T02:48:38.615Z,24.20
2023-01-12T02:51:49.351Z,25.05
2023-01-12T02:54:54.345Z,24.73
2023-01-12T02:57:58.488Z,24.93
2023-01-12T03:01:03.330Z,25.40
2023-01-12T03:04:09.202Z,25.55
2023-01-12T03:07:14.918Z,26.85
2023-01-12T03:10:36.344Z,25.23
2023-01-12T03:13:44.670Z,28.40
2023-01-12T03:16:48.095Z,26.20
2023-01-12T03:19:51.616Z,28.25
2023-01-12T03:22:59.782Z,26.33
2023-01-12T03:26:05.381Z,24.33
2023-01-12T03:29:15.277Z,25.63
2023-01-12T03:32:20.109Z,26.70
2023-01-12T03:35:27.786Z,25.80
2023-01-12T03:38:51.270Z,23.98
2023-01-12T03:42:02.785Z,25.40
2023-01-12T03:45:52.786Z,26.13
2023-01-12T03:49:04.374Z,24.27
2023-01-12T03:52:09.205Z,24.75
2023-01-12T03:55:17.550Z,25.77
2023-01-12T03:58:20.741Z,24.57
2023-01-12T04:01:23.452Z,24.70
2023-01-12T04:04:26.196Z,25.60
2023-01-12T04:07:28.629Z,26.98
2023-01-12T04:10:34.464Z,28.95
2023-01-12T04:13:36.976Z,27.13
2023-01-12T04:16:39.510Z,27.47
2023-01-12T04:19:42.215Z,30.30
2023-01-12T04:22:46.132Z,28.08
2023-01-12T04:25:48.539Z,31.15
2023-01-12T04:28:51.024Z,29.30
2023-01-12T04:31:53.507Z,29.23
2023-01-12T04:34:56.015Z,29.77
2023-01-12T04:37:58.479Z,31.38
2023-01-12T04:41:00.973Z,28.83
2023-01-12T04:44:04.243Z,28.73
2023-01-12T04:47:07.332Z,29.53
2023-01-12T04:50:10.496Z,29.63
2023-01-12T04:53:13.962Z,31.23
2023-01-12T04:56:16.539Z,32.80
2023-01-12T04:59:19.137Z,29.50
2023-01-12T05:02:21.820Z,31.10
2023-01-12T05:05:24.283Z,31.55
2023-01-12T05:08:44.977Z,29.42
2023-01-12T05:11:47.567Z,29.80
2023-01-12T05:14:50.681Z,31.07
2023-01-12T05:17:54.428Z,34.53
2023-01-12T05:20:57.089Z,31.90
2023-01-12T05:23:59.878Z,30.50
2023-01-12T05:27:02.557Z,29.88
2023-01-12T05:30:06.745Z,29.60
2023-01-12T05:33:15.877Z,30.80
2023-01-12T05:36:18.556Z,31.27
2023-01-12T05:39:21.847Z,29.98
2023-01-12T05:42:43.285Z,29.88
2023-01-12T05:45:45.759Z,26.37
2023-01-12T05:48:49.302Z,28.13
2023-01-12T05:51:51.771Z,29.45
2023-01-12T05:54:54.483Z,29.05
2023-01-12T05:57:58.919Z,30.30
2023-01-12T06:01:01.404Z,29.10
2023-01-12T06:04:04.371Z,29.30
2023-01-12T06:07:06.816Z,26.90
2023-01-12T06:10:10.906Z,27.15
2023-01-12T06:13:31.588Z,27.98
2023-01-12T06:16:38.193Z,28.63
2023-01-12T06:19:40.813Z,27.73
2023-01-12T06:22:44.566Z,28.67
2023-01-12T06:25:47.137Z,30.67
2023-01-12T06:28:49.755Z,30.90
2023-01-12T06:31:52.405Z,36.67
2023-01-12T06:34:55.201Z,35.33
2023-01-12T06:37:57.879Z,32.95
2023-01-12T06:41:30.015Z,32.95
2023-01-12T06:44:32.529Z,32.25
2023-01-12T06:47:44.414Z,31.73
2023-01-12T06:50:46.934Z,30.93
2023-01-12T06:53:52.039Z,35.83
2023-01-12T06:56:56.810Z,37.70
2023-01-12T06:59:59.308Z,32.67
2023-01-12T07:03:01.925Z,33.20
2023-01-12T07:06:04.795Z,32.57
2023-01-12T07:09:07.335Z,33.67
2023-01-12T07:12:09.857Z,31.85
2023-01-12T07:15:12.352Z,32.78
2023-01-12T07:18:14.865Z,31.73
2023-01-12T07:21:19.646Z,31.20
2023-01-12T07:24:22.275Z,32.42
2023-01-12T07:27:24.737Z,31.23
2023-01-12T07:30:30.495Z,35.03
2023-01-12T07:33:34.459Z,39.60
2023-01-12T07:36:36.935Z,37.00
2023-01-12T07:39:39.828Z,31.70
2023-01-12T07:42:42.537Z,32.75
2023-01-12T07:45:45.993Z,33.22
2023-01-12T07:48:48.543Z,33.50
2023-01-12T07:51:54.074Z,31.03
2023-01-12T07:54:56.853Z,27.23
2023-01-12T07:58:01.392Z,25.20
2023-01-12T08:01:04.457Z,25.80
2023-01-12T08:04:07.606Z,25.47
2023-01-12T08:07:10.426Z,23.43
2023-01-12T08:10:14.852Z,22.77
2023-01-12T08:13:18.735Z,23.15
2023-01-12T08:16:31.507Z,24.63
2023-01-12T08:19:41.527Z,23.70
2023-01-12T08:22:48.824Z,26.30
2023-01-12T08:25:56.912Z,24.02
2023-01-12T08:29:23.583Z,26.75
2023-01-12T08:32:33.522Z,25.15
2023-01-12T08:35:37.958Z,24.67
2023-01-12T08:38:40.643Z,24.13
2023-01-12T08:41:45.073Z,24.85
2023-01-12T08:44:47.739Z,24.50
2023-01-12T08:47:50.469Z,25.20
2023-01-12T08:50:54.041Z,25.55
2023-01-12T08:53:56.707Z,27.07
2023-01-12T08:56:59.412Z,27.98
2023-01-12T09:00:02.464Z,26.25
2023-01-12T09:03:08.799Z,25.85
2023-01-12T09:06:23.982Z,27.70
2023-01-12T09:09:26.723Z,28.10
2023-01-12T09:12:29.293Z,26.45
2023-01-12T09:15:31.957Z,25.23
2023-01-12T09:18:35.769Z,23.55
2023-01-12T09:21:40.868Z,22.03
2023-01-12T09:24:43.408Z,22.80
2023-01-12T09:27:46.032Z,22.48
2023-01-12T09:30:49.951Z,22.48
2023-01-12T09:33:53.580Z,21.83
2023-01-12T09:36:56.777Z,24.10
2023-01-12T09:40:00.525Z,22.07
2023-01-12T09:43:22.242Z,21.73
2023-01-12T09:47:00.291Z,21.75
2023-01-12T09:50:10.053Z,20.85
2023-01-12T09:53:16.479Z,20.90
2023-01-12T09:56:35.188Z,20.73
2023-01-12T09:59:46.552Z,23.35
2023-01-12T10:02:54.677Z,22.83
2023-01-12T10:06:00.746Z,22.40
2023-01-12T10:09:06.841Z,18.37
2023-01-12T10:12:24.661Z,18.43
2023-01-12T10:15:40.420Z,19.58
2023-01-12T10:18:47.860Z,21.88
2023-01-12T10:21:52.727Z,20.73
2023-01-12T10:24:55.683Z,22.15
2023-01-12T10:28:00.309Z,21.20
2023-01-12T10:31:04.142Z,20.35
2023-01-12T10:34:13.107Z,21.50
2023-01-12T10:37:15.741Z,19.95
2023-01-12T10:40:24.773Z,20.17
2023-01-12T10:43:32.454Z,20.17
2023-01-12T10:46:36.069Z,19.50
2023-01-12T10:49:38.656Z,18.02
2023-01-12T10:52:42.003Z,18.48
2023-01-12T10:55:45.397Z,16.80
2023-01-12T10:59:13.963Z,16.57
2023-01-12T11:02:16.976Z,15.75
2023-01-12T11:05:38.810Z,16.40
2023-01-12T11:08:41.394Z,16.90
2023-01-12T11:11:44.183Z,22.60
2023-01-12T11:15:18.974Z,21.13
2023-01-12T11:18:32.710Z,23.50
2023-01-12T11:21:38.284Z,22.52
2023-01-12T11:24:45.185Z,17.58
2023-01-12T11:28:22.333Z,17.27
2023-01-12T11:31:35.367Z,16.83
2023-01-12T11:34:52.098Z,16.98
2023-01-12T11:38:00.153Z,16.42
2023-01-12T11:41:09.745Z,13.32
2023-01-12T11:44:23.918Z,12.87
2023-01-12T11:47:34.909Z,11.30
2023-01-12T11:50:39.523Z,13.60
2023-01-12T11:53:42.250Z,12.98
2023-01-12T11:56:50.555Z,11.70
2023-01-12T12:00:14.049Z,13.43
2023-01-12T12:03:19.592Z,14.30
2023-01-12T12:06:34.296Z,15.52
2023-01-12T12:09:50.718Z,14.35
2023-01-12T12:13:17.233Z,14.52
2023-01-12T12:16:57.443Z,16.33
2023-01-12T12:20:23.150Z,15.33
2023-01-12T12:23:30.540Z,13.88
2023-01-12T12:26:38.400Z,15.60
2023-01-12T12:30:02.057Z,14.40
2023-01-12T12:33:28.255Z,15.27
2023-01-12T12:36:43.189Z,16.30
2023-01-12T12:40:17.208Z,14.55
2023-01-12T12:43:48.412Z,14.40
2023-01-12T12:47:07.059Z,13.43
2023-01-12T12:50:24.016Z,13.37
2023-01-12T12:53:46.181Z,12.87
2023-01-12T12:56:50.928Z,13.32
2023-01-12T12:59:57.245Z,8.90
2023-01-12T13:03:00.189Z,5.10
2023-01-12T13:06:28.931Z,10.20
2023-01-12T13:09:31.531Z,4.73
2023-01-12T13:12:34.543Z,4.68
2023-01-12T13:15:37.448Z,4.35
2023-01-12T13:19:06.911Z,4.13
2023-01-12T13:22:46.869Z,4.57
2023-01-12T13:25:57.006Z,4.53
2023-01-12T13:29:27.104Z,4.63
2023-01-12T13:32:35.522Z,4.13
2023-01-12T13:35:40.808Z,3.67
2023-01-12T13:38:53.013Z,4.00
2023-01-12T13:42:14.961Z,3.50
2023-01-12T13:45:19.604Z,3.28
2023-01-12T13:48:23.915Z,3.55
2023-01-12T13:51:38.625Z,4.05
2023-01-12T13:54:49.520Z,4.20
2023-01-12T13:58:02.296Z,3.97
2023-01-12T14:01:18.815Z,4.57
2023-01-12T14:04:44.052Z,3.88
2023-01-12T14:08:13.501Z,4.35
2023-01-12T14:11:45.182Z,4.33
2023-01-12T14:15:18.236Z,6.17
2023-01-12T14:18:40.440Z,7.35
2023-01-12T14:21:44.135Z,6.30
2023-01-12T14:24:46.758Z,6.40
2023-01-12T14:27:53.206Z,6.23
2023-01-12T14:30:57.131Z,5.20
2023-01-12T14:34:02.598Z,5.90
2023-01-12T14:37:21.367Z,8.65
2023-01-12T14:40:29.337Z,8.88
2023-01-12T14:43:53.764Z,7.80
2023-01-12T14:47:35.053Z,7.37
2023-01-12T14:50:38.104Z,6.80
2023-01-12T14:53:42.830Z,8.57
2023-01-12T14:56:51.881Z,8.50
2023-01-12T14:59:54.951Z,9.17
2023-01-12T15:02:59.688Z,10.30
2023-01-12T15:06:02.808Z,11.48
2023-01-12T15:09:10.968Z,11.02
2023-01-12T15:12:28.874Z,11.90
2023-01-12T15:15:50.140Z,11.17
2023-01-12T15:19:11.476Z,16.40
2023-01-12T15:22:33.020Z,13.77
2023-01-12T15:25:39.298Z,13.75
2023-01-12T15:28:42.856Z,14.55
2023-01-12T15:31:45.438Z,15.83
2023-01-12T15:34:48.642Z,19.13
2023-01-12T15:37:53.540Z,23.30
2023-01-12T15:40:56.196Z,24.23
2023-01-12T15:43:58.651Z,20.83
2023-01-12T15:47:01.152Z,26.70
2023-01-12T15:50:04.238Z,24.17
2023-01-12T15:53:32.781Z,25.65
2023-01-12T15:56:35.310Z,37.30
2023-01-12T15:59:38.374Z,42.13
2023-01-12T16:02:42.475Z,40.43
2023-01-12T16:05:46.447Z,45.10
2023-01-12T16:08:48.928Z,43.22
2023-01-12T16:11:51.441Z,36.88
2023-01-12T16:14:54.035Z,38.35
2023-01-12T16:17:56.528Z,42.03
2023-01-12T16:21:00.328Z,31.83
2023-01-12T16:24:02.942Z,26.55
2023-01-12T16:27:05.494Z,34.38
2023-01-12T16:30:13.349Z,30.80
2023-01-12T16:33:17.759Z,31.47
2023-01-12T16:36:20.401Z,37.20
2023-01-12T16:39:24.812Z,52.05
2023-01-12T16:42:27.844Z,47.13
2023-01-12T16:45:30.507Z,43.35
2023-01-12T16:48:34.688Z,44.70
2023-01-12T16:51:37.251Z,48.13
2023-01-12T16:54:42.625Z,55.53
2023-01-12T16:57:45.247Z,46.97
2023-01-12T17:00:47.970Z,46.47
2023-01-12T17:03:51.129Z,43.47
2023-01-12T17:06:53.830Z,43.53
2023-01-12T17:09:56.415Z,44.53
2023-01-12T17:13:01.511Z,46.15
2023-01-12T17:16:10.504Z,50.63
2023-01-12T17:19:13.422Z,54.37
2023-01-12T17:22:16.271Z,52.97
2023-01-12T17:25:18.907Z,49.25
2023-01-12T17:28:21.884Z,62.38
2023-01-12T17:31:24.548Z,66.75
2023-01-12T17:34:29.732Z,70.97
2023-01-12T17:37:32.667Z,59.10
2023-01-12T17:40:40.180Z,63.08
2023-01-12T17:43:43.819Z,57.53
2023-01-12T17:46:47.060Z,54.55
2023-01-12T17:49:49.712Z,51.43
2023-01-12T17:52:52.243Z,54.97
2023-01-12T17:55:54.812Z,48.70
2023-01-12T17:58:58.212Z,51.63
2023-01-12T18:02:00.970Z,52.85
2023-01-12T18:05:03.636Z,56.57
2023-01-12T18:08:06.246Z,56.10
2023-01-12T18:11:09.303Z,62.25
2023-01-12T18:14:12.428Z,58.97
2023-01-12T18:17:14.951Z,56.20
2023-01-12T18:20:17.466Z,57.57
2023-01-12T18:23:20.122Z,73.43
2023-01-12T18:26:28.366Z,72.82
2023-01-12T18:29:31.023Z,63.75
2023-01-12T18:32:33.531Z,69.67
2023-01-12T18:35:37.452Z,70.60
2023-01-12T18:38:41.410Z,75.30
2023-01-12T18:42:02.770Z,72.05
2023-01-12T18:45:05.733Z,74.28
2023-01-12T18:48:21.175Z,74.53
2023-01-12T18:51:42.427Z,71.95
2023-01-12T18:54:47.738Z,70.07
2023-01-12T18:57:51.262Z,68.10
2023-01-12T19:01:06.033Z,63.53
2023-01-12T19:04:09.516Z,96.63
2023-01-12T19:07:14.482Z,80.00
2023-01-12T19:10:17.697Z,86.75
2023-01-12T19:13:39.704Z,95.33
2023-01-12T19:17:00.502Z,86.43
2023-01-12T19:20:06.849Z,89.47
2023-01-12T19:23:29.939Z,84.93
2023-01-12T19:26:50.633Z,70.00
2023-01-12T19:29:53.335Z,70.57
2023-01-12T19:32:55.949Z,72.40
2023-01-12T19:35:58.945Z,80.78
2023-01-12T19:39:06.062Z,81.15
2023-01-12T19:42:27.450Z,81.97
2023-01-12T19:45:30.161Z,80.57
2023-01-12T19:48:33.017Z,79.88
2023-01-12T19:51:35.683Z,84.78
2023-01-12T19:54:38.207Z,81.53
2023-01-12T19:57:43.137Z,77.27
2023-01-12T20:00:46.373Z,79.13
2023-01-12T20:03:50.804Z,79.78
2023-01-12T20:06:53.372Z,89.15
2023-01-12T20:09:56.297Z,91.10
2023-01-12T20:12:58.851Z,89.13
2023-01-12T20:16:09.472Z,97.38
2023-01-12T20:19:13.055Z,89.38
2023-01-12T20:22:15.737Z,86.93
2023-01-12T20:25:19.632Z,78.37
2023-01-12T20:28:22.127Z,73.57
2023-01-12T20:31:24.791Z,71.80
2023-01-12T20:34:28.380Z,64.72
2023-01-12T20:37:33.422Z,60.67
2023-01-12T20:40:38.226Z,58.13
2023-01-12T20:43:40.681Z,61.40
2023-01-12T20:46:43.988Z,57.30
2023-01-12T20:49:47.567Z,61.25
2023-01-12T20:52:52.742Z,64.23
2023-01-12T20:55:55.239Z,58.40
2023-01-12T20:58:59.085Z,67.15
2023-01-12T21:02:01.755Z,60.47
2023-01-12T21:05:04.745Z,65.03
2023-01-12T21:08:08.602Z,83.93
2023-01-12T21:11:17.210Z,69.05
2023-01-12T21:14:19.771Z,69.20
2023-01-12T21:17:22.296Z,71.07
2023-01-12T21:20:25.118Z,61.37
2023-01-12T21:23:27.797Z,59.72
2023-01-12T21:26:30.272Z,62.10
2023-01-12T21:29:33.275Z,71.32
2023-01-12T21:32:35.868Z,67.13
2023-01-12T21:35:38.472Z,59.67
2023-01-12T21:38:41.134Z,60.30
2023-01-12T21:42:01.966Z,59.72
2023-01-12T21:45:04.976Z,58.23
2023-01-12T21:48:08.969Z,61.03
2023-01-12T21:51:14.128Z,59.88
2023-01-12T21:54:16.744Z,58.17
2023-01-12T21:57:19.211Z,57.17
2023-01-12T22:00:22.827Z,59.55
2023-01-12T22:03:27.202Z,56.17
2023-01-12T22:06:31.251Z,51.40
2023-01-12T22:09:33.829Z,45.23
2023-01-12T22:12:36.348Z,43.05
2023-01-12T22:15:38.750Z,45.78
2023-01-12T22:18:46.995Z,45.47
2023-01-12T22:21:49.472Z,44.33
2023-01-12T22:24:52.091Z,40.10
2023-01-12T22:27:56.743Z,43.45
2023-01-12T22:30:59.623Z,39.38
2023-01-12T22:34:05.472Z,38.58
2023-01-12T22:37:08.568Z,37.97
2023-01-12T22:40:12.062Z,40.80
2023-01-12T22:43:27.473Z,39.65
2023-01-12T22:46:29.914Z,39.80
2023-01-12T22:49:35.533Z,38.87
2023-01-12T22:52:39.278Z,38.88
2023-01-12T22:55:42.035Z,38.90
2023-01-12T22:58:53.515Z,36.60
2023-01-12T23:02:16.201Z,35.70
2023-01-12T23:05:18.632Z,36.58
2023-01-12T23:08:21.096Z,39.03
2023-01-12T23:11:26.342Z,37.60
2023-01-12T23:14:28.995Z,35.20
2023-01-12T23:17:32.872Z,35.27
2023-01-12T23:20:36.408Z,35.65
2023-01-12T23:23:39.042Z,37.50
2023-01-12T23:26:41.475Z,36.72
2023-01-12T23:29:43.951Z,34.30
2023-01-12T23:32:47.381Z,34.20
2023-01-12T23:35:49.779Z,35.03
2023-01-12T23:38:57.569Z,33.47
2023-01-12T23:42:00.662Z,31.90
2023-01-12T23:45:03.149Z,35.90
2023-01-12T23:48:07.630Z,35.28
2023-01-12T23:51:10.716Z,37.05
2023-01-12T23:54:16.932Z,37.45
2023-01-12T23:57:19.520Z,36.93
